sensor_id;sensor_type;location;lat;lon;timestamp;temperature;humidity
11963;DHT22;62678;52.130;5.584;2022-09-09T00:00:47;16.10;99.90
11963;DHT22;62678;52.130;5.584;2022-09-09T00:03:17;16.00;99.90
11963;DHT22;62678;52.130;5.584;2022-09-09T00:05:51;16.10;99.90
11963;DHT22;62678;52.130;5.584;2022-09-09T00:08:27;16.10;99.90
11963;DHT22;62678;52.130;5.584;2022-09-09T00:10:58;16.10;99.90
11963;DHT22;62678;52.130;5.584;2022-09-09T00:13:33;16.00;99.90
11963;DHT22;62678;52.130;5.584;2022-09-09T00:16:04;16.00;99.90
11963;DHT22;62678;52.130;5.584;2022-09-09T00:18:50;16.00;99.90
11963;DHT22;62678;52.130;5.584;2022-09-09T00:21:19;15.90;99.90
11963;DHT22;62678;52.130;5.584;2022-09-09T00:23:51;15.90;99.90
11963;DHT22;62678;52.130;5.584;2022-09-09T00:26:25;15.90;99.90
11963;DHT22;62678;52.130;5.584;2022-09-09T00:29:03;16.00;99.90
11963;DHT22;62678;52.130;5.584;2022-09-09T00:31:31;15.90;99.90
11963;DHT22;62678;52.130;5.584;2022-09-09T00:34:02;15.90;99.90
11963;DHT22;62678;52.130;5.584;2022-09-09T00:36:31;15.90;99.90
11963;DHT22;62678;52.130;5.584;2022-09-09T00:39:02;15.90;99.90
11963;DHT22;62678;52.130;5.584;2022-09-09T00:41:42;15.90;99.90
11963;DHT22;62678;52.130;5.584;2022-09-09T00:44:25;15.90;99.90
11963;DHT22;62678;52.130;5.584;2022-09-09T00:47:01;15.90;99.90
11963;DHT22;62678;52.130;5.584;2022-09-09T00:49:38;15.90;99.90
11963;DHT22;62678;52.130;5.584;2022-09-09T00:52:23;15.80;99.90
11963;DHT22;62678;52.130;5.584;2022-09-09T00:55:03;15.80;99.90
11963;DHT22;62678;52.130;5.584;2022-09-09T00:57:33;15.80;99.90
11963;DHT22;62678;52.130;5.584;2022-09-09T01:00:18;15.70;99.90
11963;DHT22;62678;52.130;5.584;2022-09-09T01:05:36;15.60;99.90
11963;DHT22;62678;52.130;5.584;2022-09-09T01:08:11;15.50;99.90
11963;DHT22;62678;52.130;5.584;2022-09-09T01:10:47;15.50;99.90
11963;DHT22;62678;52.130;5.584;2022-09-09T01:13:22;15.50;99.90
11963;DHT22;62678;52.130;5.584;2022-09-09T01:15:49;15.40;99.90
11963;DHT22;62678;52.130;5.584;2022-09-09T01:18:21;15.30;99.90
11963;DHT22;62678;52.130;5.584;2022-09-09T01:20:54;15.30;99.90
11963;DHT22;62678;52.130;5.584;2022-09-09T01:23:36;15.40;99.90
11963;DHT22;62678;52.130;5.584;2022-09-09T01:26:15;15.40;99.90
11963;DHT22;62678;52.130;5.584;2022-09-09T01:28:46;15.40;99.90
11963;DHT22;62678;52.130;5.584;2022-09-09T01:31:17;15.30;99.90
11963;DHT22;62678;52.130;5.584;2022-09-09T01:33:44;15.20;99.90
11963;DHT22;62678;52.130;5.584;2022-09-09T01:36:13;15.20;99.90
11963;DHT22;62678;52.130;5.584;2022-09-09T01:38:41;15.20;99.90
11963;DHT22;62678;52.130;5.584;2022-09-09T01:41:09;15.20;99.90
11963;DHT22;62678;52.130;5.584;2022-09-09T01:43:37;15.20;99.90
11963;DHT22;62678;52.130;5.584;2022-09-09T01:46:04;15.20;99.90
11963;DHT22;62678;52.130;5.584;2022-09-09T01:48:31;15.10;99.90
11963;DHT22;62678;52.130;5.584;2022-09-09T01:50:58;15.00;99.90
11963;DHT22;62678;52.130;5.584;2022-09-09T01:53:25;15.10;99.90
11963;DHT22;62678;52.130;5.584;2022-09-09T01:56:00;15.00;99.90
11963;DHT22;62678;52.130;5.584;2022-09-09T01:58:37;15.00;99.90
11963;DHT22;62678;52.130;5.584;2022-09-09T02:01:13;15.00;99.90
11963;DHT22;62678;52.130;5.584;2022-09-09T02:03:47;15.00;99.90
11963;DHT22;62678;52.130;5.584;2022-09-09T02:06:25;15.00;99.90
11963;DHT22;62678;52.130;5.584;2022-09-09T02:08:55;14.90;99.90
11963;DHT22;62678;52.130;5.584;2022-09-09T02:11:24;14.90;99.90
11963;DHT22;62678;52.130;5.584;2022-09-09T02:13:54;14.90;99.90
11963;DHT22;62678;52.130;5.584;2022-09-09T02:16:25;14.90;99.90
11963;DHT22;62678;52.130;5.584;2022-09-09T02:18:57;14.80;99.90
11963;DHT22;62678;52.130;5.584;2022-09-09T02:21:28;14.80;99.90
11963;DHT22;62678;52.130;5.584;2022-09-09T02:23:57;14.80;99.90
11963;DHT22;62678;52.130;5.584;2022-09-09T02:26:26;14.80;99.90
11963;DHT22;62678;52.130;5.584;2022-09-09T02:28:57;14.80;99.90
11963;DHT22;62678;52.130;5.584;2022-09-09T02:31:25;14.70;99.90
11963;DHT22;62678;52.130;5.584;2022-09-09T02:33:56;14.70;99.90
11963;DHT22;62678;52.130;5.584;2022-09-09T02:36:26;14.70;99.90
11963;DHT22;62678;52.130;5.584;2022-09-09T02:38:56;14.70;99.90
11963;DHT22;62678;52.130;5.584;2022-09-09T02:41:26;14.70;99.90
11963;DHT22;62678;52.130;5.584;2022-09-09T02:43:55;14.70;99.90
11963;DHT22;62678;52.130;5.584;2022-09-09T02:46:32;14.70;99.90
11963;DHT22;62678;52.130;5.584;2022-09-09T02:49:04;14.70;99.90
11963;DHT22;62678;52.130;5.584;2022-09-09T02:51:37;14.70;99.90
11963;DHT22;62678;52.130;5.584;2022-09-09T02:54:10;14.60;99.90
11963;DHT22;62678;52.130;5.584;2022-09-09T02:56:42;14.60;99.90
11963;DHT22;62678;52.130;5.584;2022-09-09T02:59:11;14.60;99.90
11963;DHT22;62678;52.130;5.584;2022-09-09T03:01:38;14.60;99.90
11963;DHT22;62678;52.130;5.584;2022-09-09T03:04:05;14.60;99.90
11963;DHT22;62678;52.130;5.584;2022-09-09T03:06:32;14.50;99.90
11963;DHT22;62678;52.130;5.584;2022-09-09T03:08:59;14.60;99.90
11963;DHT22;62678;52.130;5.584;2022-09-09T03:11:27;14.50;99.90
11963;DHT22;62678;52.130;5.584;2022-09-09T03:13:54;14.50;99.90
11963;DHT22;62678;52.130;5.584;2022-09-09T03:16:23;14.50;99.90
11963;DHT22;62678;52.130;5.584;2022-09-09T03:18:50;14.60;99.90
11963;DHT22;62678;52.130;5.584;2022-09-09T03:21:17;14.60;99.90
11963;DHT22;62678;52.130;5.584;2022-09-09T03:23:44;14.50;99.90
11963;DHT22;62678;52.130;5.584;2022-09-09T03:26:11;14.50;99.90
11963;DHT22;62678;52.130;5.584;2022-09-09T03:28:40;14.50;99.90
11963;DHT22;62678;52.130;5.584;2022-09-09T03:31:07;14.50;99.90
11963;DHT22;62678;52.130;5.584;2022-09-09T03:33:37;14.50;99.90
11963;DHT22;62678;52.130;5.584;2022-09-09T03:36:04;14.50;99.90
11963;DHT22;62678;52.130;5.584;2022-09-09T03:38:32;14.50;99.90
11963;DHT22;62678;52.130;5.584;2022-09-09T03:41:00;14.50;99.90
11963;DHT22;62678;52.130;5.584;2022-09-09T03:43:28;14.50;99.90
11963;DHT22;62678;52.130;5.584;2022-09-09T03:45:55;14.50;99.90
11963;DHT22;62678;52.130;5.584;2022-09-09T03:48:23;14.50;99.90
11963;DHT22;62678;52.130;5.584;2022-09-09T03:50:52;14.40;99.90
11963;DHT22;62678;52.130;5.584;2022-09-09T03:53:21;14.40;99.90
11963;DHT22;62678;52.130;5.584;2022-09-09T03:55:50;14.50;99.90
11963;DHT22;62678;52.130;5.584;2022-09-09T03:58:18;14.50;99.90
11963;DHT22;62678;52.130;5.584;2022-09-09T04:00:53;14.60;99.90
11963;DHT22;62678;52.130;5.584;2022-09-09T04:03:20;14.60;99.90
11963;DHT22;62678;52.130;5.584;2022-09-09T04:05:48;14.60;99.90
11963;DHT22;62678;52.130;5.584;2022-09-09T04:08:16;14.70;99.90
11963;DHT22;62678;52.130;5.584;2022-09-09T04:10:44;14.80;99.90
11963;DHT22;62678;52.130;5.584;2022-09-09T04:13:12;14.80;99.90
11963;DHT22;62678;52.130;5.584;2022-09-09T04:15:42;14.80;99.90
11963;DHT22;62678;52.130;5.584;2022-09-09T04:18:09;14.70;99.90
11963;DHT22;62678;52.130;5.584;2022-09-09T04:20:36;14.80;99.90
11963;DHT22;62678;52.130;5.584;2022-09-09T04:23:03;14.70;99.90
11963;DHT22;62678;52.130;5.584;2022-09-09T04:25:31;14.70;99.90
11963;DHT22;62678;52.130;5.584;2022-09-09T04:27:59;14.70;99.90
11963;DHT22;62678;52.130;5.584;2022-09-09T04:30:26;14.70;99.90
11963;DHT22;62678;52.130;5.584;2022-09-09T04:32:53;14.80;99.90
11963;DHT22;62678;52.130;5.584;2022-09-09T04:35:20;14.80;99.90
11963;DHT22;62678;52.130;5.584;2022-09-09T04:37:47;14.80;99.90
11963;DHT22;62678;52.130;5.584;2022-09-09T04:40:14;14.80;99.90
11963;DHT22;62678;52.130;5.584;2022-09-09T04:42:42;14.70;99.90
11963;DHT22;62678;52.130;5.584;2022-09-09T04:45:10;14.70;99.90
11963;DHT22;62678;52.130;5.584;2022-09-09T04:47:38;14.80;99.90
11963;DHT22;62678;52.130;5.584;2022-09-09T04:50:07;14.80;99.90
11963;DHT22;62678;52.130;5.584;2022-09-09T04:52:34;14.80;99.90
11963;DHT22;62678;52.130;5.584;2022-09-09T04:55:01;14.90;99.90
11963;DHT22;62678;52.130;5.584;2022-09-09T04:57:28;15.00;99.90
11963;DHT22;62678;52.130;5.584;2022-09-09T04:59:58;15.00;99.90
11963;DHT22;62678;52.130;5.584;2022-09-09T05:02:25;15.00;99.90
11963;DHT22;62678;52.130;5.584;2022-09-09T05:04:52;15.00;99.90
11963;DHT22;62678;52.130;5.584;2022-09-09T05:07:19;15.00;99.90
11963;DHT22;62678;52.130;5.584;2022-09-09T05:09:46;15.00;99.90
11963;DHT22;62678;52.130;5.584;2022-09-09T05:12:14;14.90;99.90
11963;DHT22;62678;52.130;5.584;2022-09-09T05:14:42;14.90;99.90
11963;DHT22;62678;52.130;5.584;2022-09-09T05:17:10;14.80;99.90
11963;DHT22;62678;52.130;5.584;2022-09-09T05:19:38;14.90;99.90
11963;DHT22;62678;52.130;5.584;2022-09-09T05:22:04;14.90;99.90
11963;DHT22;62678;52.130;5.584;2022-09-09T05:24:31;14.90;99.90
11963;DHT22;62678;52.130;5.584;2022-09-09T05:26:58;14.90;99.90
11963;DHT22;62678;52.130;5.584;2022-09-09T05:29:27;14.90;99.90
11963;DHT22;62678;52.130;5.584;2022-09-09T05:31:54;14.90;99.90
11963;DHT22;62678;52.130;5.584;2022-09-09T05:34:22;14.90;99.90
11963;DHT22;62678;52.130;5.584;2022-09-09T05:36:49;15.00;99.90
11963;DHT22;62678;52.130;5.584;2022-09-09T05:39:17;15.00;99.90
11963;DHT22;62678;52.130;5.584;2022-09-09T05:41:44;14.90;99.90
11963;DHT22;62678;52.130;5.584;2022-09-09T05:44:11;15.00;99.90
11963;DHT22;62678;52.130;5.584;2022-09-09T05:46:39;15.00;99.90
11963;DHT22;62678;52.130;5.584;2022-09-09T05:49:05;15.00;99.90
11963;DHT22;62678;52.130;5.584;2022-09-09T05:51:35;15.00;99.90
11963;DHT22;62678;52.130;5.584;2022-09-09T05:54:01;15.10;99.90
11963;DHT22;62678;52.130;5.584;2022-09-09T05:56:29;15.10;99.90
11963;DHT22;62678;52.130;5.584;2022-09-09T05:58:58;15.10;99.90
11963;DHT22;62678;52.130;5.584;2022-09-09T06:01:26;15.20;99.90
11963;DHT22;62678;52.130;5.584;2022-09-09T06:03:54;15.20;99.90
11963;DHT22;62678;52.130;5.584;2022-09-09T06:06:23;15.30;99.90
11963;DHT22;62678;52.130;5.584;2022-09-09T06:08:54;15.40;99.90
11963;DHT22;62678;52.130;5.584;2022-09-09T06:11:23;15.40;99.90
11963;DHT22;62678;52.130;5.584;2022-09-09T06:13:50;15.50;99.90
11963;DHT22;62678;52.130;5.584;2022-09-09T06:16:20;15.50;99.90
11963;DHT22;62678;52.130;5.584;2022-09-09T06:18:48;15.50;99.90
11963;DHT22;62678;52.130;5.584;2022-09-09T06:21:17;15.60;99.90
11963;DHT22;62678;52.130;5.584;2022-09-09T06:23:44;15.60;99.90
11963;DHT22;62678;52.130;5.584;2022-09-09T06:26:15;15.60;99.90
11963;DHT22;62678;52.130;5.584;2022-09-09T06:28:43;15.70;99.90
11963;DHT22;62678;52.130;5.584;2022-09-09T06:31:13;15.80;99.90
11963;DHT22;62678;52.130;5.584;2022-09-09T06:33:41;15.90;99.90
11963;DHT22;62678;52.130;5.584;2022-09-09T06:36:11;16.00;99.90
11963;DHT22;62678;52.130;5.584;2022-09-09T06:38:38;16.00;99.90
11963;DHT22;62678;52.130;5.584;2022-09-09T06:41:05;16.10;99.90
11963;DHT22;62678;52.130;5.584;2022-09-09T06:43:33;16.10;99.90
11963;DHT22;62678;52.130;5.584;2022-09-09T06:46:02;16.10;99.90
11963;DHT22;62678;52.130;5.584;2022-09-09T06:48:35;16.20;99.90
11963;DHT22;62678;52.130;5.584;2022-09-09T06:51:04;16.20;99.90
11963;DHT22;62678;52.130;5.584;2022-09-09T06:53:32;16.30;99.90
11963;DHT22;62678;52.130;5.584;2022-09-09T06:56:28;16.40;99.90
11963;DHT22;62678;52.130;5.584;2022-09-09T06:59:00;16.50;99.90
11963;DHT22;62678;52.130;5.584;2022-09-09T07:01:31;16.60;99.90
11963;DHT22;62678;52.130;5.584;2022-09-09T07:03:59;16.70;99.90
11963;DHT22;62678;52.130;5.584;2022-09-09T07:06:28;16.80;99.90
11963;DHT22;62678;52.130;5.584;2022-09-09T07:08:59;16.70;99.90
11963;DHT22;62678;52.130;5.584;2022-09-09T07:11:27;16.60;99.90
11963;DHT22;62678;52.130;5.584;2022-09-09T07:13:55;16.70;99.90
11963;DHT22;62678;52.130;5.584;2022-09-09T07:16:24;16.70;99.90
11963;DHT22;62678;52.130;5.584;2022-09-09T07:18:52;16.90;99.90
11963;DHT22;62678;52.130;5.584;2022-09-09T07:21:31;17.10;99.90
11963;DHT22;62678;52.130;5.584;2022-09-09T07:24:00;17.10;99.90
11963;DHT22;62678;52.130;5.584;2022-09-09T07:26:36;17.30;99.90
11963;DHT22;62678;52.130;5.584;2022-09-09T07:29:04;17.40;99.90
11963;DHT22;62678;52.130;5.584;2022-09-09T07:31:47;17.40;99.90
11963;DHT22;62678;52.130;5.584;2022-09-09T07:34:19;17.50;99.90
11963;DHT22;62678;52.130;5.584;2022-09-09T07:36:46;17.70;99.90
11963;DHT22;62678;52.130;5.584;2022-09-09T07:39:14;17.90;99.90
11963;DHT22;62678;52.130;5.584;2022-09-09T07:41:44;17.90;99.90
11963;DHT22;62678;52.130;5.584;2022-09-09T07:44:13;18.10;99.90
11963;DHT22;62678;52.130;5.584;2022-09-09T07:46:41;17.90;99.90
11963;DHT22;62678;52.130;5.584;2022-09-09T07:49:09;17.90;99.90
11963;DHT22;62678;52.130;5.584;2022-09-09T07:51:49;17.80;99.90
11963;DHT22;62678;52.130;5.584;2022-09-09T07:54:18;17.60;99.90
11963;DHT22;62678;52.130;5.584;2022-09-09T07:57:03;17.70;99.90
11963;DHT22;62678;52.130;5.584;2022-09-09T07:59:30;17.70;99.90
11963;DHT22;62678;52.130;5.584;2022-09-09T08:01:57;17.80;99.90
11963;DHT22;62678;52.130;5.584;2022-09-09T08:04:26;18.00;99.90
11963;DHT22;62678;52.130;5.584;2022-09-09T08:06:55;18.00;99.90
11963;DHT22;62678;52.130;5.584;2022-09-09T08:09:23;17.90;99.90
11963;DHT22;62678;52.130;5.584;2022-09-09T08:11:53;17.80;99.90
11963;DHT22;62678;52.130;5.584;2022-09-09T08:14:20;17.80;99.90
11963;DHT22;62678;52.130;5.584;2022-09-09T08:16:48;17.80;99.90
11963;DHT22;62678;52.130;5.584;2022-09-09T08:19:15;17.70;99.90
11963;DHT22;62678;52.130;5.584;2022-09-09T08:21:45;17.70;99.90
11963;DHT22;62678;52.130;5.584;2022-09-09T08:24:13;17.50;99.90
11963;DHT22;62678;52.130;5.584;2022-09-09T08:26:41;17.70;99.90
11963;DHT22;62678;52.130;5.584;2022-09-09T08:29:09;17.90;99.90
11963;DHT22;62678;52.130;5.584;2022-09-09T08:31:38;18.00;99.90
11963;DHT22;62678;52.130;5.584;2022-09-09T08:34:06;17.80;99.90
11963;DHT22;62678;52.130;5.584;2022-09-09T08:36:35;18.00;99.90
11963;DHT22;62678;52.130;5.584;2022-09-09T08:39:05;17.90;99.90
11963;DHT22;62678;52.130;5.584;2022-09-09T08:41:43;17.90;99.90
11963;DHT22;62678;52.130;5.584;2022-09-09T08:44:18;18.00;99.90
11963;DHT22;62678;52.130;5.584;2022-09-09T08:46:51;18.00;99.90
11963;DHT22;62678;52.130;5.584;2022-09-09T08:49:40;18.10;99.90
11963;DHT22;62678;52.130;5.584;2022-09-09T08:52:16;18.00;99.90
11963;DHT22;62678;52.130;5.584;2022-09-09T08:54:46;18.10;99.90
11963;DHT22;62678;52.130;5.584;2022-09-09T08:57:18;17.80;99.90
11963;DHT22;62678;52.130;5.584;2022-09-09T08:59:46;17.80;99.90
11963;DHT22;62678;52.130;5.584;2022-09-09T09:02:16;17.80;99.90
11963;DHT22;62678;52.130;5.584;2022-09-09T09:05:01;17.70;99.90
11963;DHT22;62678;52.130;5.584;2022-09-09T09:07:42;17.90;99.90
11963;DHT22;62678;52.130;5.584;2022-09-09T09:10:25;17.90;99.90
11963;DHT22;62678;52.130;5.584;2022-09-09T09:12:58;17.90;99.90
11963;DHT22;62678;52.130;5.584;2022-09-09T09:15:31;17.90;99.90
11963;DHT22;62678;52.130;5.584;2022-09-09T09:18:02;18.10;99.90
11963;DHT22;62678;52.130;5.584;2022-09-09T09:20:36;18.00;99.90
11963;DHT22;62678;52.130;5.584;2022-09-09T09:23:05;18.10;99.90
11963;DHT22;62678;52.130;5.584;2022-09-09T09:25:37;17.80;99.90
11963;DHT22;62678;52.130;5.584;2022-09-09T09:28:13;17.90;99.90
11963;DHT22;62678;52.130;5.584;2022-09-09T09:30:45;17.90;99.90
11963;DHT22;62678;52.130;5.584;2022-09-09T09:33:19;18.00;99.90
11963;DHT22;62678;52.130;5.584;2022-09-09T09:35:49;18.00;99.90
11963;DHT22;62678;52.130;5.584;2022-09-09T09:38:20;17.90;99.90
11963;DHT22;62678;52.130;5.584;2022-09-09T09:40:53;18.00;99.90
11963;DHT22;62678;52.130;5.584;2022-09-09T09:43:25;18.20;99.90
11963;DHT22;62678;52.130;5.584;2022-09-09T09:45:53;18.10;99.90
11963;DHT22;62678;52.130;5.584;2022-09-09T09:48:20;18.20;99.90
11963;DHT22;62678;52.130;5.584;2022-09-09T09:50:50;18.30;99.90
11963;DHT22;62678;52.130;5.584;2022-09-09T09:53:21;18.40;99.90
11963;DHT22;62678;52.130;5.584;2022-09-09T09:55:55;18.30;99.90
11963;DHT22;62678;52.130;5.584;2022-09-09T09:58:22;18.30;99.90
11963;DHT22;62678;52.130;5.584;2022-09-09T10:00:52;18.40;99.90
11963;DHT22;62678;52.130;5.584;2022-09-09T10:03:23;18.40;99.90
11963;DHT22;62678;52.130;5.584;2022-09-09T10:05:51;18.40;99.90
11963;DHT22;62678;52.130;5.584;2022-09-09T10:08:18;18.50;99.90
11963;DHT22;62678;52.130;5.584;2022-09-09T10:10:53;18.60;99.90
11963;DHT22;62678;52.130;5.584;2022-09-09T10:13:28;18.50;99.90
11963;DHT22;62678;52.130;5.584;2022-09-09T10:16:09;18.50;99.90
11963;DHT22;62678;52.130;5.584;2022-09-09T10:18:47;18.70;99.90
11963;DHT22;62678;52.130;5.584;2022-09-09T10:21:36;18.80;99.90
11963;DHT22;62678;52.130;5.584;2022-09-09T10:27:00;18.60;99.90
11963;DHT22;62678;52.130;5.584;2022-09-09T10:29:41;18.40;99.90
11963;DHT22;62678;52.130;5.584;2022-09-09T10:32:36;18.30;99.90
11963;DHT22;62678;52.130;5.584;2022-09-09T10:35:10;18.10;99.90
11963;DHT22;62678;52.130;5.584;2022-09-09T10:37:46;18.10;99.90
11963;DHT22;62678;52.130;5.584;2022-09-09T10:40:30;18.10;99.90
11963;DHT22;62678;52.130;5.584;2022-09-09T10:43:04;18.20;99.90
11963;DHT22;62678;52.130;5.584;2022-09-09T10:45:45;18.30;99.90
11963;DHT22;62678;52.130;5.584;2022-09-09T10:48:26;18.30;99.90
11963;DHT22;62678;52.130;5.584;2022-09-09T10:51:07;18.10;99.90
11963;DHT22;62678;52.130;5.584;2022-09-09T10:53:43;17.60;99.90
11963;DHT22;62678;52.130;5.584;2022-09-09T10:56:16;17.30;99.90
11963;DHT22;62678;52.130;5.584;2022-09-09T10:58:48;17.30;99.90
11963;DHT22;62678;52.130;5.584;2022-09-09T11:01:20;17.00;99.90
11963;DHT22;62678;52.130;5.584;2022-09-09T11:03:53;17.30;99.90
11963;DHT22;62678;52.130;5.584;2022-09-09T11:06:24;17.40;99.90
11963;DHT22;62678;52.130;5.584;2022-09-09T11:08:53;17.70;99.90
11963;DHT22;62678;52.130;5.584;2022-09-09T11:11:25;17.90;99.90
11963;DHT22;62678;52.130;5.584;2022-09-09T11:13:57;18.10;99.90
11963;DHT22;62678;52.130;5.584;2022-09-09T11:16:30;18.10;99.90
11963;DHT22;62678;52.130;5.584;2022-09-09T11:19:02;18.60;99.90
11963;DHT22;62678;52.130;5.584;2022-09-09T11:21:32;18.90;99.90
11963;DHT22;62678;52.130;5.584;2022-09-09T11:24:04;19.10;99.90
11963;DHT22;62678;52.130;5.584;2022-09-09T11:26:38;19.10;99.90
11963;DHT22;62678;52.130;5.584;2022-09-09T11:29:19;19.30;99.90
11963;DHT22;62678;52.130;5.584;2022-09-09T11:32:00;19.30;99.90
11963;DHT22;62678;52.130;5.584;2022-09-09T11:34:42;19.20;99.90
11963;DHT22;62678;52.130;5.584;2022-09-09T11:40:16;19.30;99.90
11963;DHT22;62678;52.130;5.584;2022-09-09T11:42:46;19.30;99.90
11963;DHT22;62678;52.130;5.584;2022-09-09T11:45:23;19.50;99.90
11963;DHT22;62678;52.130;5.584;2022-09-09T11:47:56;19.80;99.90
11963;DHT22;62678;52.130;5.584;2022-09-09T11:50:32;20.20;99.90
11963;DHT22;62678;52.130;5.584;2022-09-09T11:53:22;20.20;99.90
11963;DHT22;62678;52.130;5.584;2022-09-09T11:56:01;19.60;99.90
11963;DHT22;62678;52.130;5.584;2022-09-09T11:58:38;19.30;99.90
11963;DHT22;62678;52.130;5.584;2022-09-09T12:01:34;19.30;99.90
11963;DHT22;62678;52.130;5.584;2022-09-09T12:04:16;19.40;99.90
11963;DHT22;62678;52.130;5.584;2022-09-09T12:06:45;19.50;99.90
11963;DHT22;62678;52.130;5.584;2022-09-09T12:09:19;19.50;99.90
11963;DHT22;62678;52.130;5.584;2022-09-09T12:11:49;19.20;99.90
11963;DHT22;62678;52.130;5.584;2022-09-09T12:14:23;19.20;99.90
11963;DHT22;62678;52.130;5.584;2022-09-09T12:17:09;19.30;99.90
11963;DHT22;62678;52.130;5.584;2022-09-09T12:19:38;19.10;99.90
11963;DHT22;62678;52.130;5.584;2022-09-09T12:22:07;19.00;99.90
11963;DHT22;62678;52.130;5.584;2022-09-09T12:24:43;19.10;99.90
11963;DHT22;62678;52.130;5.584;2022-09-09T12:27:17;19.00;99.90
11963;DHT22;62678;52.130;5.584;2022-09-09T12:29:50;18.80;99.90
11963;DHT22;62678;52.130;5.584;2022-09-09T12:32:23;18.90;99.90
11963;DHT22;62678;52.130;5.584;2022-09-09T12:34:54;19.00;99.90
11963;DHT22;62678;52.130;5.584;2022-09-09T12:37:27;18.70;99.90
11963;DHT22;62678;52.130;5.584;2022-09-09T12:39:56;18.70;99.90
11963;DHT22;62678;52.130;5.584;2022-09-09T12:42:25;18.50;99.90
11963;DHT22;62678;52.130;5.584;2022-09-09T12:44:54;18.40;99.90
11963;DHT22;62678;52.130;5.584;2022-09-09T12:47:23;18.40;99.90
11963;DHT22;62678;52.130;5.584;2022-09-09T12:49:53;18.40;99.90
11963;DHT22;62678;52.130;5.584;2022-09-09T12:52:26;18.60;99.90
11963;DHT22;62678;52.130;5.584;2022-09-09T12:54:55;18.70;99.90
11963;DHT22;62678;52.130;5.584;2022-09-09T12:57:24;19.10;99.90
11963;DHT22;62678;52.130;5.584;2022-09-09T12:59:52;19.20;99.90
11963;DHT22;62678;52.130;5.584;2022-09-09T13:02:30;19.00;99.90
11963;DHT22;62678;52.130;5.584;2022-09-09T13:05:06;19.10;99.90
11963;DHT22;62678;52.130;5.584;2022-09-09T13:07:39;18.90;99.90
11963;DHT22;62678;52.130;5.584;2022-09-09T13:10:07;18.80;99.90
11963;DHT22;62678;52.130;5.584;2022-09-09T13:12:37;18.90;99.90
11963;DHT22;62678;52.130;5.584;2022-09-09T13:15:04;19.10;99.90
11963;DHT22;62678;52.130;5.584;2022-09-09T13:17:37;19.30;99.90
11963;DHT22;62678;52.130;5.584;2022-09-09T13:20:16;19.30;99.90
11963;DHT22;62678;52.130;5.584;2022-09-09T13:22:43;19.10;99.90
11963;DHT22;62678;52.130;5.584;2022-09-09T13:25:20;18.90;99.90
11963;DHT22;62678;52.130;5.584;2022-09-09T13:27:59;18.70;99.90
11963;DHT22;62678;52.130;5.584;2022-09-09T13:30:30;18.70;99.90
11963;DHT22;62678;52.130;5.584;2022-09-09T13:33:17;18.60;99.90
11963;DHT22;62678;52.130;5.584;2022-09-09T13:35:48;18.60;99.90
11963;DHT22;62678;52.130;5.584;2022-09-09T13:38:16;18.70;99.90
11963;DHT22;62678;52.130;5.584;2022-09-09T13:40:52;18.80;99.90
11963;DHT22;62678;52.130;5.584;2022-09-09T13:43:22;18.90;99.90
11963;DHT22;62678;52.130;5.584;2022-09-09T13:45:56;19.00;99.90
11963;DHT22;62678;52.130;5.584;2022-09-09T13:48:24;19.20;99.90
11963;DHT22;62678;52.130;5.584;2022-09-09T13:50:58;19.20;99.90
11963;DHT22;62678;52.130;5.584;2022-09-09T13:53:25;19.30;99.90
11963;DHT22;62678;52.130;5.584;2022-09-09T13:55:53;19.20;99.90
11963;DHT22;62678;52.130;5.584;2022-09-09T13:58:20;19.30;99.90
11963;DHT22;62678;52.130;5.584;2022-09-09T14:00:48;19.30;99.90
11963;DHT22;62678;52.130;5.584;2022-09-09T14:03:16;19.30;99.90
11963;DHT22;62678;52.130;5.584;2022-09-09T14:05:44;19.30;99.90
11963;DHT22;62678;52.130;5.584;2022-09-09T14:08:25;19.20;99.90
11963;DHT22;62678;52.130;5.584;2022-09-09T14:10:59;19.20;99.90
11963;DHT22;62678;52.130;5.584;2022-09-09T14:13:29;19.30;99.90
11963;DHT22;62678;52.130;5.584;2022-09-09T14:15:57;19.30;99.90
11963;DHT22;62678;52.130;5.584;2022-09-09T14:18:26;19.50;99.90
11963;DHT22;62678;52.130;5.584;2022-09-09T14:20:55;19.40;99.90
11963;DHT22;62678;52.130;5.584;2022-09-09T14:23:26;19.40;99.90
11963;DHT22;62678;52.130;5.584;2022-09-09T14:25:56;19.40;99.90
11963;DHT22;62678;52.130;5.584;2022-09-09T14:28:23;19.50;99.90
11963;DHT22;62678;52.130;5.584;2022-09-09T14:30:49;19.60;99.90
11963;DHT22;62678;52.130;5.584;2022-09-09T14:33:16;19.70;99.90
11963;DHT22;62678;52.130;5.584;2022-09-09T14:35:43;19.80;99.90
11963;DHT22;62678;52.130;5.584;2022-09-09T14:38:10;19.80;99.90
11963;DHT22;62678;52.130;5.584;2022-09-09T14:40:38;19.80;99.90
11963;DHT22;62678;52.130;5.584;2022-09-09T14:43:05;19.90;99.90
11963;DHT22;62678;52.130;5.584;2022-09-09T14:45:32;19.70;99.90
11963;DHT22;62678;52.130;5.584;2022-09-09T14:47:59;19.70;99.90
11963;DHT22;62678;52.130;5.584;2022-09-09T14:50:26;19.60;99.90
11963;DHT22;62678;52.130;5.584;2022-09-09T14:52:53;19.60;99.90
11963;DHT22;62678;52.130;5.584;2022-09-09T14:55:19;19.70;99.90
11963;DHT22;62678;52.130;5.584;2022-09-09T14:57:48;19.70;99.90
11963;DHT22;62678;52.130;5.584;2022-09-09T15:00:15;19.80;99.90
11963;DHT22;62678;52.130;5.584;2022-09-09T15:02:42;19.70;99.90
11963;DHT22;62678;52.130;5.584;2022-09-09T15:05:09;19.80;99.90
11963;DHT22;62678;52.130;5.584;2022-09-09T15:07:36;19.80;99.90
11963;DHT22;62678;52.130;5.584;2022-09-09T15:10:04;19.70;99.90
11963;DHT22;62678;52.130;5.584;2022-09-09T15:12:32;19.60;99.90
11963;DHT22;62678;52.130;5.584;2022-09-09T15:15:02;19.40;99.90
11963;DHT22;62678;52.130;5.584;2022-09-09T15:17:29;19.30;99.90
11963;DHT22;62678;52.130;5.584;2022-09-09T15:19:56;19.40;99.90
11963;DHT22;62678;52.130;5.584;2022-09-09T15:22:23;19.30;99.90
11963;DHT22;62678;52.130;5.584;2022-09-09T15:24:49;19.10;99.90
11963;DHT22;62678;52.130;5.584;2022-09-09T15:27:16;19.10;99.90
11963;DHT22;62678;52.130;5.584;2022-09-09T15:29:43;19.00;99.90
11963;DHT22;62678;52.130;5.584;2022-09-09T15:32:11;19.20;99.90
11963;DHT22;62678;52.130;5.584;2022-09-09T15:34:38;19.40;99.90
11963;DHT22;62678;52.130;5.584;2022-09-09T15:37:05;19.50;99.90
11963;DHT22;62678;52.130;5.584;2022-09-09T15:39:33;19.90;99.90
11963;DHT22;62678;52.130;5.584;2022-09-09T15:41:59;20.20;99.90
11963;DHT22;62678;52.130;5.584;2022-09-09T15:44:27;20.40;99.90
11963;DHT22;62678;52.130;5.584;2022-09-09T15:46:54;21.10;99.90
11963;DHT22;62678;52.130;5.584;2022-09-09T15:49:23;21.30;99.90
11963;DHT22;62678;52.130;5.584;2022-09-09T15:51:52;21.70;99.90
11963;DHT22;62678;52.130;5.584;2022-09-09T15:54:21;22.50;99.90
11963;DHT22;62678;52.130;5.584;2022-09-09T15:56:51;22.60;99.90
11963;DHT22;62678;52.130;5.584;2022-09-09T15:59:20;22.90;99.90
11963;DHT22;62678;52.130;5.584;2022-09-09T16:01:47;22.30;99.90